Time;durP1;ratioP1;P1;durP2;ratioP2;P2;SDS_P1;SDS_P2;PMS_P1;PMS_P2;Temp;Humidity;BMP_temperature;BMP_pressure;BME280_temperature;BME280_humidity;BME280_pressure;Samples;Min_cycle;Max_cycle;Signal;HPM_P1;HPM_P2
2023/03/16 00:01:06;;;;;;;1999.90;999.90;;;3.80;99.90;;;;;;5051512;28;20164;-68
2023/03/16 00:03:33;;;;;;;1999.90;999.90;;;3.80;99.90;;;;;;5051413;28;20203;-68
2023/03/16 00:05:59;;;;;;;1999.90;999.90;;;3.80;99.90;;;;;;5051439;28;20418;-67
2023/03/16 00:08:25;;;;;;;1999.90;999.90;;;3.80;99.90;;;;;;5051519;28;20488;-67
2023/03/16 00:10:52;;;;;;;1999.90;999.90;;;3.80;99.90;;;;;;5055311;28;20548;-67
2023/03/16 00:13:23;;;;;;;1999.90;999.90;;;3.70;99.90;;;;;;5055185;28;20544;-67
2023/03/16 00:16:01;;;;;;;1999.90;999.90;;;3.70;99.90;;;;;;5055392;28;20199;-66
2023/03/16 00:18:28;;;;;;;1999.90;999.90;;;3.70;99.90;;;;;;5055195;28;20167;-67
2023/03/16 00:21:00;;;;;;;1999.90;999.90;;;3.80;99.90;;;;;;5055071;28;20920;-67
2023/03/16 00:23:26;;;;;;;1999.90;999.90;;;3.70;99.90;;;;;;5054975;28;20450;-67
2023/03/16 00:25:54;;;;;;;1999.90;999.90;;;3.80;99.90;;;;;;5054948;28;20927;-67
2023/03/16 00:28:20;;;;;;;1999.90;999.90;;;3.80;99.90;;;;;;5054930;28;20187;-67
2023/03/16 00:30:47;;;;;;;1999.90;999.90;;;3.90;99.90;;;;;;5055164;28;20499;-67
2023/03/16 00:33:12;;;;;;;1999.90;999.90;;;3.90;99.90;;;;;;5054880;28;20405;-66
2023/03/16 00:35:38;;;;;;;1999.90;999.90;;;3.80;99.90;;;;;;5054755;28;20430;-66
2023/03/16 00:38:03;;;;;;;1999.90;999.90;;;3.80;99.90;;;;;;5054882;28;20607;-66
2023/03/16 00:40:29;;;;;;;1999.90;999.90;;;3.80;99.90;;;;;;5054806;28;20247;-67
2023/03/16 00:42:55;;;;;;;1999.90;999.90;;;3.80;99.90;;;;;;5054449;28;20727;-67
2023/03/16 00:45:22;;;;;;;1999.90;999.90;;;3.90;99.90;;;;;;5054718;28;20180;-67
2023/03/16 00:47:48;;;;;;;1999.90;999.90;;;3.70;99.90;;;;;;5054829;28;20460;-67
2023/03/16 00:50:14;;;;;;;1999.90;999.90;;;3.70;99.90;;;;;;5054660;28;20828;-67
2023/03/16 00:52:41;;;;;;;1999.90;999.90;;;3.70;99.90;;;;;;5054397;28;20441;-67
2023/03/16 00:55:07;;;;;;;1999.90;999.90;;;3.80;99.90;;;;;;5083419;23;20975;-70
2023/03/16 00:57:33;;;;;;;1999.90;999.90;;;3.70;99.90;;;;;;5014561;28;20904;-71
2023/03/16 00:59:59;;;;;;;1999.90;999.90;;;3.80;99.90;;;;;;5014626;28;20943;-70
2023/03/16 01:02:25;;;;;;;1999.90;999.90;;;3.80;99.90;;;;;;5014350;28;20412;-70
2023/03/16 01:04:53;;;;;;;1999.90;999.90;;;3.80;99.90;;;;;;5014556;28;20240;-70
2023/03/16 01:07:20;;;;;;;1999.90;999.90;;;3.70;99.90;;;;;;5014538;28;20407;-70
2023/03/16 01:09:46;;;;;;;1999.90;999.90;;;3.70;99.90;;;;;;5014495;28;20400;-70
2023/03/16 01:12:16;;;;;;;1999.90;999.90;;;3.60;99.90;;;;;;5014221;28;20423;-72
2023/03/16 01:14:44;;;;;;;1999.90;999.90;;;3.70;99.90;;;;;;5014280;28;20939;-70
2023/03/16 01:17:12;;;;;;;1999.90;999.90;;;3.70;99.90;;;;;;5014400;28;20412;-70
2023/03/16 01:19:38;;;;;;;1999.90;999.90;;;3.60;99.90;;;;;;5014084;28;20439;-70
2023/03/16 01:22:05;;;;;;;1999.90;999.90;;;3.60;99.90;;;;;;5013131;28;20416;-70
2023/03/16 01:24:31;;;;;;;1999.90;999.90;;;3.60;99.90;;;;;;5013939;28;20448;-71
2023/03/16 01:26:57;;;;;;;1999.90;999.90;;;3.60;99.90;;;;;;5014176;28;20466;-70
2023/03/16 01:29:22;;;;;;;1999.90;999.90;;;3.60;99.90;;;;;;5014123;28;20400;-69
2023/03/16 01:31:49;;;;;;;1999.90;999.90;;;3.60;99.90;;;;;;5014100;28;20180;-72
2023/03/16 01:34:15;;;;;;;1999.90;999.90;;;3.50;99.90;;;;;;5014122;28;20184;-70
2023/03/16 01:36:43;;;;;;;1999.90;999.90;;;3.60;99.90;;;;;;5013804;28;20483;-72
2023/03/16 01:39:10;;;;;;;1999.90;999.90;;;3.60;99.90;;;;;;5013864;28;20784;-70
2023/03/16 01:41:36;;;;;;;1999.90;999.90;;;3.50;99.90;;;;;;5014022;28;20432;-70
2023/03/16 01:44:01;;;;;;;1999.90;999.90;;;3.50;99.90;;;;;;5013611;28;20633;-71
2023/03/16 01:46:28;;;;;;;1999.90;999.90;;;3.60;99.90;;;;;;5013655;28;20930;-70
2023/03/16 01:48:55;;;;;;;1999.90;999.90;;;3.60;99.90;;;;;;5013835;28;20165;-71
2023/03/16 01:51:42;;;;;;;1999.90;999.90;;;3.70;99.90;;;;;;5013660;28;20165;-70
2023/03/16 01:54:20;;;;;;;1999.90;999.90;;;3.70;99.90;;;;;;5013485;28;20414;-70
2023/03/16 01:56:55;;;;;;;1999.90;999.90;;;3.70;99.90;;;;;;5013356;28;20415;-71
2023/03/16 01:59:25;;;;;;;1999.90;999.90;;;3.70;99.90;;;;;;5013592;28;20423;-70
2023/03/16 02:01:51;;;;;;;1999.90;999.90;;;3.80;99.90;;;;;;5013257;28;20404;-70
2023/03/16 02:04:38;;;;;;;1999.90;999.90;;;3.80;99.90;;;;;;5013438;28;20497;-70
2023/03/16 02:07:06;;;;;;;1999.90;999.90;;;3.80;99.90;;;;;;5013354;28;20404;-70
2023/03/16 02:09:34;;;;;;;1999.90;999.90;;;3.90;99.90;;;;;;5013403;28;20481;-70
2023/03/16 02:12:00;;;;;;;1999.90;999.90;;;3.80;99.90;;;;;;5013188;28;20447;-70
2023/03/16 02:14:26;;;;;;;1999.90;999.90;;;4.00;99.90;;;;;;5013054;28;20419;-72
2023/03/16 02:16:52;;;;;;;1999.90;999.90;;;3.90;99.90;;;;;;5013118;28;20408;-70
2023/03/16 02:19:34;;;;;;;1999.90;999.90;;;4.00;99.90;;;;;;5013162;28;20172;-71
2023/03/16 02:22:06;;;;;;;1999.90;999.90;;;4.00;99.90;;;;;;5012994;28;20470;-70
2023/03/16 02:24:32;;;;;;;1999.90;999.90;;;4.00;99.90;;;;;;5012948;28;20458;-71
2023/03/16 02:27:03;;;;;;;1999.90;999.90;;;4.00;99.90;;;;;;5012929;28;20412;-71
2023/03/16 02:29:53;;;;;;;1999.90;999.90;;;4.00;99.90;;;;;;5013256;28;20584;-70
2023/03/16 02:32:21;;;;;;;1999.90;999.90;;;4.00;99.90;;;;;;5012549;28;20411;-70
2023/03/16 02:34:47;;;;;;;1999.90;999.90;;;4.10;99.90;;;;;;5012762;28;20423;-70
2023/03/16 02:37:13;;;;;;;1999.90;999.90;;;4.10;99.90;;;;;;5012769;28;20491;-70
2023/03/16 02:39:38;;;;;;;1999.90;999.90;;;4.00;99.90;;;;;;5012783;28;20180;-69
2023/03/16 02:42:04;;;;;;;1999.90;999.90;;;4.00;99.90;;;;;;5012626;28;20173;-70
2023/03/16 02:44:35;;;;;;;1999.90;999.90;;;3.80;99.90;;;;;;5012640;28;20201;-70
2023/03/16 02:47:10;;;;;;;1999.90;999.90;;;4.00;99.90;;;;;;5012775;28;20160;-72
2023/03/16 02:49:38;;;;;;;1999.90;999.90;;;3.90;99.90;;;;;;5012677;28;20978;-70
2023/03/16 02:52:07;;;;;;;1999.90;999.90;;;3.90;99.90;;;;;;5012428;28;20408;-70
2023/03/16 02:54:32;;;;;;;1999.90;999.90;;;4.80;99.90;;;;;;5012478;28;20412;-70
2023/03/16 02:56:58;;;;;;;1999.90;999.90;;;3.90;99.90;;;;;;5012534;28;20408;-70
2023/03/16 02:59:23;;;;;;;1999.90;999.90;;;3.90;99.90;;;;;;5012613;28;20169;-70
2023/03/16 03:01:50;;;;;;;1999.90;999.90;;;3.90;99.90;;;;;;5012353;28;20173;-71
2023/03/16 03:04:16;;;;;;;1999.90;999.90;;;4.00;99.90;;;;;;5012442;28;20259;-71
2023/03/16 03:06:42;;;;;;;1999.90;999.90;;;4.00;99.90;;;;;;5012265;28;20424;-71
2023/03/16 03:09:10;;;;;;;1999.90;999.90;;;4.00;99.90;;;;;;5012451;28;20252;-71
2023/03/16 03:11:36;;;;;;;1999.90;999.90;;;4.00;99.90;;;;;;5012368;28;20408;-71
2023/03/16 03:14:02;;;;;;;1999.90;999.90;;;4.00;99.90;;;;;;5012145;28;20412;-71
2023/03/16 03:16:28;;;;;;;1999.90;999.90;;;4.00;99.90;;;;;;5012328;28;20423;-71
2023/03/16 03:18:54;;;;;;;1999.90;999.90;;;4.10;99.90;;;;;;5012283;28;20407;-71
2023/03/16 03:21:20;;;;;;;1999.90;999.90;;;4.00;99.90;;;;;;5012388;28;20482;-71
2023/03/16 03:23:45;;;;;;;1999.90;999.90;;;4.00;99.90;;;;;;5012029;28;20201;-70
2023/03/16 03:26:16;;;;;;;1999.90;999.90;;;4.00;99.90;;;;;;5012110;28;20428;-70
2023/03/16 03:28:42;;;;;;;1999.90;999.90;;;4.00;99.90;;;;;;5012206;28;20164;-72
2023/03/16 03:31:14;;;;;;;1999.90;999.90;;;4.00;99.90;;;;;;5012242;28;20495;-70
2023/03/16 03:33:39;;;;;;;1999.90;999.90;;;4.10;99.90;;;;;;5011936;28;20165;-70
2023/03/16 03:36:05;;;;;;;1999.90;999.90;;;4.10;99.90;;;;;;5011958;28;20423;-71
2023/03/16 03:38:30;;;;;;;1999.90;999.90;;;4.00;99.90;;;;;;5012168;28;20199;-70
2023/03/16 03:40:59;;;;;;;1999.90;999.90;;;4.00;99.90;;;;;;5012137;28;20646;-70
2023/03/16 03:43:25;;;;;;;1999.90;999.90;;;4.00;99.90;;;;;;5011908;28;20283;-70
2023/03/16 03:45:56;;;;;;;1999.90;999.90;;;4.10;99.90;;;;;;5015906;28;20520;-70
2023/03/16 03:48:22;;;;;;;1999.90;999.90;;;4.10;99.90;;;;;;5016038;28;20184;-70
2023/03/16 03:50:48;;;;;;;1999.90;999.90;;;4.10;99.90;;;;;;5016008;28;20494;-70
2023/03/16 03:53:14;;;;;;;1999.90;999.90;;;4.10;99.90;;;;;;5015847;28;20495;-70
2023/03/16 03:55:39;;;;;;;1999.90;999.90;;;4.00;99.90;;;;;;5015649;28;20208;-70
2023/03/16 03:58:05;;;;;;;1999.90;999.90;;;4.00;99.90;;;;;;5015667;28;20188;-71
2023/03/16 04:00:31;;;;;;;1999.90;999.90;;;4.00;99.90;;;;;;5015815;28;20202;-70
2023/03/16 04:02:57;;;;;;;1999.90;999.90;;;4.00;99.90;;;;;;5015394;28;20188;-71
2023/03/16 04:05:26;;;;;;;1999.90;999.90;;;4.00;99.90;;;;;;5015670;28;20434;-70
2023/03/16 04:07:56;;;;;;;1999.90;999.90;;;4.00;99.90;;;;;;5015607;28;20189;-70
2023/03/16 04:10:30;;;;;;;1999.90;999.90;;;4.00;99.90;;;;;;5015711;28;20791;-70
2023/03/16 04:12:57;;;;;;;1999.90;999.90;;;4.00;99.90;;;;;;5015418;28;20387;-70
2023/03/16 04:15:23;;;;;;;1999.90;999.90;;;4.00;99.90;;;;;;5015463;28;20858;-71
2023/03/16 04:17:48;;;;;;;1999.90;999.90;;;4.00;99.90;;;;;;5015570;28;20443;-71
2023/03/16 04:20:18;;;;;;;1999.90;999.90;;;4.10;99.90;;;;;;5015420;28;20412;-71
2023/03/16 04:22:47;;;;;;;1999.90;999.90;;;4.10;99.90;;;;;;5015150;28;20646;-71
2023/03/16 04:25:15;;;;;;;1999.90;999.90;;;4.10;99.90;;;;;;5015312;28;20505;-71
2023/03/16 04:27:41;;;;;;;1999.90;999.90;;;4.20;99.90;;;;;;5015121;28;20773;-70
2023/03/16 04:30:12;;;;;;;1999.90;999.90;;;4.20;99.90;;;;;;5015293;28;20403;-70
2023/03/16 04:32:38;;;;;;;1999.90;999.90;;;4.20;99.90;;;;;;5014940;28;20503;-71
2023/03/16 04:35:04;;;;;;;1999.90;999.90;;;4.10;99.90;;;;;;5015043;28;20513;-70
2023/03/16 04:37:30;;;;;;;1999.90;999.90;;;4.10;99.90;;;;;;5014978;28;21055;-70
2023/03/16 04:39:55;;;;;;;1999.90;999.90;;;4.20;99.90;;;;;;5014998;28;20487;-70
2023/03/16 04:42:21;;;;;;;1999.90;999.90;;;4.10;99.90;;;;;;5014776;28;20169;-70
2023/03/16 04:44:47;;;;;;;1999.90;999.90;;;4.10;99.90;;;;;;5014817;28;20209;-70
2023/03/16 04:47:14;;;;;;;1999.90;999.90;;;4.10;99.90;;;;;;5014883;28;20576;-70
2023/03/16 04:49:40;;;;;;;1999.90;999.90;;;4.10;99.90;;;;;;5014922;28;20179;-70
2023/03/16 04:52:06;;;;;;;1999.90;999.90;;;4.10;99.90;;;;;;5014684;28;21073;-71
2023/03/16 04:54:33;;;;;;;1999.90;999.90;;;4.10;99.90;;;;;;5014299;28;20412;-71
2023/03/16 04:56:59;;;;;;;1999.90;999.90;;;4.10;99.90;;;;;;5014577;28;20412;-69
2023/03/16 04:59:26;;;;;;;1999.90;999.90;;;4.10;99.90;;;;;;5014890;28;20459;-71
2023/03/16 05:01:52;;;;;;;1999.90;999.90;;;4.00;99.90;;;;;;5014520;28;20985;-69
2023/03/16 05:04:18;;;;;;;1999.90;999.90;;;4.00;99.90;;;;;;5014489;28;20463;-71
2023/03/16 05:06:43;;;;;;;1999.90;999.90;;;3.90;99.90;;;;;;5014408;28;20440;-70
2023/03/16 05:09:09;;;;;;;1999.90;999.90;;;3.90;99.90;;;;;;5014582;28;20169;-71
2023/03/16 05:11:35;;;;;;;1999.90;999.90;;;3.90;99.90;;;;;;5014495;28;20204;-71
2023/03/16 05:14:01;;;;;;;1999.90;999.90;;;3.90;99.90;;;;;;5014317;28;20495;-71
2023/03/16 05:16:28;;;;;;;1999.90;999.90;;;3.90;99.90;;;;;;5014302;28;20686;-71
2023/03/16 05:18:56;;;;;;;1999.90;999.90;;;3.90;99.90;;;;;;5014510;28;20400;-71
2023/03/16 05:21:21;;;;;;;1999.90;999.90;;;4.00;99.90;;;;;;5014272;28;20455;-69
2023/03/16 05:23:47;;;;;;;1999.90;999.90;;;4.00;99.90;;;;;;5013941;28;20534;-69
2023/03/16 05:26:13;;;;;;;1999.90;999.90;;;4.10;99.90;;;;;;5013906;28;20192;-70
2023/03/16 05:28:39;;;;;;;1999.90;999.90;;;4.00;99.90;;;;;;5014254;28;20165;-70
2023/03/16 05:31:05;;;;;;;1999.90;999.90;;;4.10;99.90;;;;;;5014297;28;20189;-70
2023/03/16 05:33:30;;;;;;;1999.90;999.90;;;4.00;99.90;;;;;;5013890;28;20435;-70
2023/03/16 05:35:56;;;;;;;1999.90;999.90;;;4.00;99.90;;;;;;5013972;28;20970;-70
2023/03/16 05:38:23;;;;;;;1999.90;999.90;;;3.90;99.90;;;;;;5013966;28;20248;-69
2023/03/16 05:40:51;;;;;;;1999.90;999.90;;;3.80;99.90;;;;;;5013914;28;20478;-70
2023/03/16 05:43:19;;;;;;;1999.90;999.90;;;3.90;99.90;;;;;;5013546;28;20448;-70
2023/03/16 05:45:45;;;;;;;1999.90;999.90;;;3.90;99.90;;;;;;5013893;28;21019;-70
2023/03/16 05:48:10;;;;;;;1999.90;999.90;;;3.90;99.90;;;;;;5013643;28;20408;-70
2023/03/16 05:50:36;;;;;;;1999.90;999.90;;;3.90;99.90;;;;;;5013729;28;20454;-70
2023/03/16 05:53:02;;;;;;;1999.90;999.90;;;4.00;99.90;;;;;;5013514;28;20531;-70
2023/03/16 05:55:28;;;;;;;1999.90;999.90;;;4.00;99.90;;;;;;5013383;28;20317;-71
2023/03/16 05:57:54;;;;;;;1999.90;999.90;;;4.00;99.90;;;;;;5013676;28;20983;-71
2023/03/16 06:00:20;;;;;;;1999.90;999.90;;;4.00;99.90;;;;;;5013675;28;20200;-70
2023/03/16 06:02:48;;;;;;;1999.90;999.90;;;4.00;99.90;;;;;;5013195;28;20240;-70
2023/03/16 06:05:15;;;;;;;1999.90;999.90;;;4.00;99.90;;;;;;5013358;28;20523;-70
2023/03/16 06:07:41;;;;;;;1999.90;999.90;;;4.00;99.90;;;;;;5012652;28;20459;-70
2023/03/16 06:10:08;;;;;;;1999.90;999.90;;;4.00;99.90;;;;;;5013501;28;20446;-70
2023/03/16 06:12:34;;;;;;;1999.90;999.90;;;4.10;99.90;;;;;;5013121;28;20415;-70
2023/03/16 06:15:00;;;;;;;1999.90;999.90;;;4.20;99.90;;;;;;5013202;28;20791;-70
2023/03/16 06:17:26;;;;;;;1999.90;999.90;;;4.20;99.90;;;;;;5013092;28;20723;-70
2023/03/16 06:19:52;;;;;;;1999.90;999.90;;;4.20;99.90;;;;;;5013162;28;20412;-71
2023/03/16 06:22:17;;;;;;;1999.90;999.90;;;4.30;99.90;;;;;;5012912;28;20212;-70
2023/03/16 06:24:43;;;;;;;1999.90;999.90;;;4.30;99.90;;;;;;5012981;28;20283;-69
2023/03/16 06:27:09;;;;;;;1999.90;999.90;;;4.40;99.90;;;;;;5012911;28;20176;-70
2023/03/16 06:29:35;;;;;;;1999.90;999.90;;;4.50;99.90;;;;;;5013220;28;20408;-70
2023/03/16 06:32:00;;;;;;;1999.90;999.90;;;4.60;99.90;;;;;;5012810;28;20778;-71
2023/03/16 06:34:26;;;;;;;1999.90;999.90;;;4.80;99.90;;;;;;5012927;28;20176;-71
2023/03/16 06:36:52;;;;;;;1999.90;999.90;;;4.80;99.90;;;;;;5012518;28;20510;-70
2023/03/16 06:39:17;;;;;;;1999.90;999.90;;;4.80;99.90;;;;;;5013144;28;20215;-71
2023/03/16 06:41:43;;;;;;;1999.90;999.90;;;4.90;99.90;;;;;;5012861;28;20263;-69
2023/03/16 06:44:10;;;;;;;1999.90;999.90;;;5.00;99.90;;;;;;5012669;28;20193;-70
2023/03/16 06:46:36;;;;;;;1999.90;999.90;;;5.00;99.90;;;;;;5012711;28;20677;-70
2023/03/16 06:49:03;;;;;;;1999.90;999.90;;;5.00;99.90;;;;;;5012815;28;20842;-70
2023/03/16 06:51:30;;;;;;;1999.90;999.90;;;5.00;99.90;;;;;;5012659;28;20436;-72
2023/03/16 06:53:56;;;;;;;1999.90;999.90;;;5.00;99.90;;;;;;5012411;28;20415;-70
2023/03/16 06:56:21;;;;;;;1999.90;999.90;;;5.00;99.90;;;;;;5012901;28;20952;-71
2023/03/16 06:58:48;;;;;;;1999.90;999.90;;;5.10;99.90;;;;;;5012644;28;20412;-70
2023/03/16 07:01:14;;;;;;;1999.90;999.90;;;5.10;99.90;;;;;;5012619;28;20638;-71
2023/03/16 07:03:40;;;;;;;1999.90;999.90;;;5.10;99.90;;;;;;5012217;28;20454;-71
2023/03/16 07:06:07;;;;;;;1999.90;999.90;;;5.10;99.90;;;;;;5012252;28;20201;-70
2023/03/16 07:08:33;;;;;;;1999.90;999.90;;;5.20;99.90;;;;;;5012589;28;20494;-71
2023/03/16 07:10:58;;;;;;;1999.90;999.90;;;5.30;99.90;;;;;;5012482;28;20844;-70
2023/03/16 07:13:24;;;;;;;1999.90;999.90;;;5.30;99.90;;;;;;5012237;28;20180;-70
2023/03/16 07:15:51;;;;;;;1999.90;999.90;;;5.30;99.90;;;;;;5012237;28;20197;-74
2023/03/16 07:18:17;;;;;;;1999.90;999.90;;;5.40;99.90;;;;;;5012273;28;20196;-69
2023/03/16 07:20:43;;;;;;;1999.90;999.90;;;5.50;99.90;;;;;;5012400;28;20412;-70
2023/03/16 07:23:09;;;;;;;1999.90;999.90;;;5.50;99.90;;;;;;5012348;28;20444;-70
2023/03/16 07:25:35;;;;;;;1999.90;999.90;;;5.60;99.90;;;;;;5012286;28;20204;-69
2023/03/16 07:28:02;;;;;;;1999.90;999.90;;;5.70;99.90;;;;;;5012224;28;20436;-69
2023/03/16 07:30:28;;;;;;;1999.90;999.90;;;5.80;99.90;;;;;;5012296;28;20897;-70
2023/03/16 07:32:53;;;;;;;1999.90;999.90;;;5.90;99.90;;;;;;5012035;28;20418;-71
2023/03/16 07:35:20;;;;;;;1999.90;999.90;;;6.00;99.90;;;;;;5012022;28;20221;-70
2023/03/16 07:37:46;;;;;;;1999.90;999.90;;;6.00;99.90;;;;;;5012218;28;20181;-70
2023/03/16 07:40:12;;;;;;;1999.90;999.90;;;6.10;99.90;;;;;;5012132;28;20479;-70
2023/03/16 07:42:38;;;;;;;1999.90;999.90;;;6.10;99.90;;;;;;5011989;28;20251;-70
2023/03/16 07:45:05;;;;;;;1999.90;999.90;;;6.10;99.90;;;;;;5012000;28;20924;-70
2023/03/16 07:47:32;;;;;;;1999.90;999.90;;;6.20;99.90;;;;;;5011920;28;20220;-70
2023/03/16 07:49:58;;;;;;;1999.90;999.90;;;6.20;99.90;;;;;;5012029;28;20416;-70
2023/03/16 07:52:23;;;;;;;1999.90;999.90;;;6.30;99.90;;;;;;5011794;28;21096;-70
2023/03/16 07:54:50;;;;;;;1999.90;999.90;;;6.20;99.90;;;;;;5011872;28;20204;-70
2023/03/16 07:57:15;;;;;;;1999.90;999.90;;;6.40;99.90;;;;;;5011900;28;20174;-70
2023/03/16 07:59:41;;;;;;;1999.90;999.90;;;6.40;99.90;;;;;;5012021;28;20547;-70
2023/03/16 08:02:12;;;;;;;1999.90;999.90;;;6.40;99.90;;;;;;5011744;28;20550;-70
2023/03/16 08:04:41;;;;;;;1999.90;999.90;;;6.30;99.90;;;;;;5011831;28;20200;-70
2023/03/16 08:07:07;;;;;;;1999.90;999.90;;;6.30;99.90;;;;;;5011856;28;20412;-71
2023/03/16 08:09:34;;;;;;;1999.90;999.90;;;6.30;99.90;;;;;;5011881;28;20491;-70
2023/03/16 08:12:02;;;;;;;1999.90;999.90;;;6.40;99.90;;;;;;5011764;28;20413;-70
2023/03/16 08:14:28;;;;;;;1999.90;999.90;;;6.50;99.90;;;;;;5011839;28;20419;-71
2023/03/16 08:16:54;;;;;;;1999.90;999.90;;;6.50;99.90;;;;;;5011669;28;20424;-70
2023/03/16 08:19:20;;;;;;;1999.90;999.90;;;6.50;99.90;;;;;;5011804;28;20462;-70
2023/03/16 08:21:46;;;;;;;1999.90;999.90;;;6.50;99.90;;;;;;5011700;28;20503;-70
2023/03/16 08:24:11;;;;;;;1999.90;999.90;;;6.50;99.90;;;;;;5011600;28;20606;-71
2023/03/16 08:26:37;;;;;;;1999.90;999.90;;;6.50;99.90;;;;;;5011563;28;20189;-71
2023/03/16 08:29:03;;;;;;;1999.90;999.90;;;6.50;99.90;;;;;;5011748;28;20161;-71
2023/03/16 08:31:29;;;;;;;1999.90;999.90;;;6.60;99.90;;;;;;5014816;28;20184;-71
2023/03/16 08:33:56;;;;;;;1999.90;999.90;;;6.60;99.90;;;;;;5015124;28;20900;-71
2023/03/16 08:36:22;;;;;;;1999.90;999.90;;;6.70;99.90;;;;;;5014947;28;20523;-70
2023/03/16 08:38:48;;;;;;;1999.90;999.90;;;6.70;99.90;;;;;;5015127;28;20423;-71
2023/03/16 08:41:16;;;;;;;1999.90;999.90;;;6.70;99.90;;;;;;5015136;28;20538;-70
2023/03/16 08:43:42;;;;;;;1999.90;999.90;;;6.80;99.90;;;;;;5014850;28;20276;-70
2023/03/16 08:46:07;;;;;;;1999.90;999.90;;;6.80;99.90;;;;;;5014765;28;20436;-70
2023/03/16 08:48:33;;;;;;;1999.90;999.90;;;6.80;99.90;;;;;;5015160;28;20408;-70
2023/03/16 08:51:04;;;;;;;1999.90;999.90;;;6.90;99.90;;;;;;5014878;28;20541;-70
2023/03/16 08:53:30;;;;;;;1999.90;999.90;;;7.00;99.90;;;;;;5014714;28;20419;-71
2023/03/16 08:56:03;;;;;;;1999.90;999.90;;;7.20;99.90;;;;;;5014411;28;20448;-70
2023/03/16 08:58:31;;;;;;;1999.90;999.90;;;7.40;99.90;;;;;;5014749;28;20252;-70
2023/03/16 09:00:58;;;;;;;1999.90;999.90;;;7.60;99.90;;;;;;5014899;28;20434;-70
2023/03/16 09:03:24;;;;;;;1999.90;999.90;;;7.80;99.90;;;;;;5014523;28;20549;-69
2023/03/16 09:05:51;;;;;;;1999.90;999.90;;;7.90;99.90;;;;;;5014573;28;20432;-71
2023/03/16 09:08:17;;;;;;;1999.90;999.90;;;7.90;99.90;;;;;;5012616;28;20406;-68
2023/03/16 09:10:43;;;;;;;1999.90;999.90;;;8.00;99.90;;;;;;5013459;28;20409;-73
2023/03/16 09:13:09;;;;;;;1999.90;999.90;;;8.00;99.90;;;;;;5014057;28;20476;-72
2023/03/16 09:15:36;;;;;;;1999.90;999.90;;;8.00;99.90;;;;;;5013863;28;20429;-70
2023/03/16 09:18:02;;;;;;;1999.90;999.90;;;8.00;99.90;;;;;;5013770;28;20414;-70
2023/03/16 09:20:28;;;;;;;1999.90;999.90;;;8.10;99.90;;;;;;5014052;28;20836;-71
2023/03/16 09:22:55;;;;;;;1999.90;999.90;;;8.00;99.90;;;;;;5013622;28;20458;-70
2023/03/16 09:25:21;;;;;;;1999.90;999.90;;;8.10;99.90;;;;;;5013476;28;20442;-72
2023/03/16 09:27:47;;;;;;;1999.90;999.90;;;8.00;99.90;;;;;;5013755;28;20418;-72
2023/03/16 09:30:14;;;;;;;1999.90;999.90;;;8.00;99.90;;;;;;5013892;28;20405;-72
2023/03/16 09:32:40;;;;;;;1999.90;999.90;;;8.10;99.90;;;;;;5013352;28;20200;-72
2023/03/16 09:35:06;;;;;;;1999.90;999.90;;;8.10;99.90;;;;;;5013634;28;20458;-71
2023/03/16 09:37:32;;;;;;;1999.90;999.90;;;8.20;99.90;;;;;;5013619;28;20925;-72
2023/03/16 09:39:58;;;;;;;1999.90;999.90;;;8.20;99.90;;;;;;5013196;28;20844;-72
2023/03/16 09:42:41;;;;;;;1999.90;999.90;;;8.40;99.90;;;;;;5012165;28;20486;-70
2023/03/16 09:45:31;;;;;;;1999.90;999.90;;;8.40;99.90;;;;;;5010788;28;20480;-71
2023/03/16 09:48:02;;;;;;;1999.90;999.90;;;8.50;99.90;;;;;;4997823;28;20417;-70
2023/03/16 09:50:34;;;;;;;1999.90;999.90;;;8.50;99.90;;;;;;4989670;28;21248;-71
2023/03/16 09:53:09;;;;;;;1999.90;999.90;;;8.50;99.90;;;;;;4988613;28;20416;-68
2023/03/16 09:55:38;;;;;;;1999.90;999.90;;;8.50;99.90;;;;;;4988825;28;20461;-66
2023/03/16 09:58:17;;;;;;;1999.90;999.90;;;8.50;99.90;;;;;;4989085;28;20431;-66
2023/03/16 10:01:13;;;;;;;1999.90;999.90;;;8.60;99.90;;;;;;4988889;28;20484;-67
2023/03/16 10:04:09;;;;;;;1999.90;999.90;;;8.60;99.90;;;;;;4989787;28;20454;-70
2023/03/16 10:07:14;;;;;;;1999.90;999.90;;;8.70;99.90;;;;;;4988914;28;20435;-67
2023/03/16 10:09:57;;;;;;;1999.90;999.90;;;8.60;99.90;;;;;;4935721;28;20460;-65
2023/03/16 10:12:30;;;;;;;1999.90;999.90;;;8.80;99.90;;;;;;4988811;28;20424;-68
2023/03/16 10:15:07;;;;;;;1999.90;999.90;;;8.90;99.90;;;;;;4988039;28;20440;-68
2023/03/16 10:18:01;;;;;;;1999.90;999.90;;;9.30;99.90;;;;;;4988596;28;20477;-68
2023/03/16 10:20:32;;;;;;;1999.90;999.90;;;9.80;99.90;;;;;;4987945;28;20503;-69
2023/03/16 10:23:00;;;;;;;1999.90;999.90;;;10.00;99.90;;;;;;4988506;28;20423;-69
2023/03/16 10:25:31;;;;;;;1999.90;999.90;;;10.10;99.90;;;;;;4988635;28;20466;-68
2023/03/16 10:27:57;;;;;;;1999.90;999.90;;;10.40;99.90;;;;;;4988215;28;20948;-69
2023/03/16 10:30:31;;;;;;;1999.90;999.90;;;10.50;99.90;;;;;;4988964;28;20420;-69
2023/03/16 10:33:02;;;;;;;1999.90;999.90;;;10.60;99.90;;;;;;4989254;28;20196;-69
2023/03/16 10:35:37;;;;;;;1999.90;999.90;;;10.80;99.90;;;;;;4988598;28;20435;-69
2023/03/16 10:38:03;;;;;;;1999.90;999.90;;;10.90;99.90;;;;;;4987938;28;20430;-69
2023/03/16 10:40:37;;;;;;;1999.90;999.90;;;11.10;99.90;;;;;;4988469;28;20420;-68
2023/03/16 10:43:13;;;;;;;1999.90;999.90;;;11.50;99.90;;;;;;4988236;28;20490;-67
2023/03/16 10:45:39;;;;;;;1999.90;999.90;;;11.70;99.90;;;;;;4988220;28;21037;-67
2023/03/16 10:48:13;;;;;;;1999.90;999.90;;;11.50;99.90;;;;;;4989072;28;20451;-69
2023/03/16 10:50:40;;;;;;;1999.90;999.90;;;11.40;99.90;;;;;;4988538;28;20433;-69
2023/03/16 10:53:20;;;;;;;1999.90;999.90;;;11.50;99.90;;;;;;4987292;28;20424;-68
2023/03/16 10:55:46;;;;;;;1999.90;999.90;;;11.50;99.90;;;;;;4993220;28;20589;-69
2023/03/16 10:58:26;;;;;;;1999.90;999.90;;;11.60;99.90;;;;;;5007946;28;20426;-67
2023/03/16 11:00:52;;;;;;;1999.90;999.90;;;11.90;99.90;;;;;;5007235;28;20420;-67
2023/03/16 11:03:27;;;;;;;1999.90;999.90;;;11.90;99.90;;;;;;5008047;28;20459;-69
2023/03/16 11:06:04;;;;;;;1999.90;999.90;;;12.00;99.90;;;;;;5007927;28;20435;-67
2023/03/16 11:08:40;;;;;;;1999.90;999.90;;;12.00;99.90;;;;;;5007652;28;20541;-70
2023/03/16 11:11:16;;;;;;;1999.90;999.90;;;11.90;99.90;;;;;;5007439;28;20415;-66
2023/03/16 11:13:46;;;;;;;1999.90;999.90;;;12.00;99.90;;;;;;5007801;28;20424;-67
2023/03/16 11:16:37;;;;;;;1999.90;999.90;;;12.40;99.90;;;;;;5006764;28;20447;-71
2023/03/16 11:19:16;;;;;;;1999.90;999.90;;;12.60;99.90;;;;;;5008267;28;20427;-68
2023/03/16 11:21:53;;;;;;;1999.90;999.90;;;12.60;99.90;;;;;;5007847;28;21017;-66
2023/03/16 11:24:36;;;;;;;1999.90;999.90;;;12.50;99.90;;;;;;5008210;28;20460;-67
2023/03/16 11:27:07;;;;;;;1999.90;999.90;;;12.70;99.90;;;;;;5007639;28;20509;-64
2023/03/16 11:30:00;;;;;;;1999.90;999.90;;;12.80;99.90;;;;;;5007663;28;20931;-68
2023/03/16 11:32:32;;;;;;;1999.90;999.90;;;12.80;99.90;;;;;;5007089;28;20424;-70
2023/03/16 11:34:59;;;;;;;1999.90;999.90;;;13.00;99.90;;;;;;5007077;28;20456;-69
2023/03/16 11:37:44;;;;;;;1999.90;999.90;;;13.00;99.90;;;;;;5010117;28;20430;-69
2023/03/16 11:40:15;;;;;;;1999.90;999.90;;;12.90;99.90;;;;;;5011766;28;20423;-69
2023/03/16 11:43:13;;;;;;;1999.90;999.90;;;13.10;99.90;;;;;;5011734;28;20445;-68
2023/03/16 11:45:56;;;;;;;1999.90;999.90;;;13.10;99.90;;;;;;5011100;28;20446;-68
2023/03/16 11:48:41;;;;;;;1999.90;999.90;;;13.10;99.90;;;;;;5011822;28;20773;-68
2023/03/16 11:51:54;;;;;;;1999.90;999.90;;;13.10;99.90;;;;;;5011154;28;20527;-68
2023/03/16 11:54:38;;;;;;;1999.90;999.90;;;13.30;99.90;;;;;;4978349;28;20873;-68
2023/03/16 11:57:21;;;;;;;1999.90;999.90;;;13.30;99.90;;;;;;5011522;28;20419;-69
2023/03/16 12:00:02;;;;;;;1999.90;999.90;;;13.50;99.90;;;;;;5010831;28;20401;-68
2023/03/16 12:02:36;;;;;;;1999.90;999.90;;;13.80;98.40;;;;;;5011199;28;20920;-69
2023/03/16 12:05:33;;;;;;;1999.90;999.90;;;14.10;97.00;;;;;;5012463;28;20454;-71
2023/03/16 12:08:38;;;;;;;1999.90;999.90;;;14.20;94.90;;;;;;5014710;28;20395;-70
2023/03/16 12:11:21;;;;;;;1999.90;999.90;;;14.50;96.00;;;;;;5015420;28;20407;-70
2023/03/16 12:14:05;;;;;;;1999.90;999.90;;;14.50;96.70;;;;;;5014786;28;20391;-71
2023/03/16 12:17:12;;;;;;;1999.90;999.90;;;15.10;93.50;;;;;;5014900;28;20424;-71